sensor_id;sensor_type;location;lat;lon;timestamp;P1;durP1;ratioP1;P2;durP2;ratioP2
18265;SDS011;9259;48.194;16.322;2024-02-21T00:01:22;8.20;;;2.67;;
18265;SDS011;9259;48.194;16.322;2024-02-21T00:03:50;14.23;;;2.70;;
18265;SDS011;9259;48.194;16.322;2024-02-21T00:06:18;8.57;;;2.60;;
18265;SDS011;9259;48.194;16.322;2024-02-21T00:08:46;8.87;;;2.67;;
18265;SDS011;9259;48.194;16.322;2024-02-21T00:11:15;8.50;;;2.50;;
18265;SDS011;9259;48.194;16.322;2024-02-21T00:13:43;8.53;;;2.57;;
18265;SDS011;9259;48.194;16.322;2024-02-21T00:16:11;12.20;;;2.83;;
18265;SDS011;9259;48.194;16.322;2024-02-21T00:18:41;9.97;;;2.60;;
18265;SDS011;9259;48.194;16.322;2024-02-21T00:21:09;9.47;;;2.77;;
18265;SDS011;9259;48.194;16.322;2024-02-21T00:23:40;9.63;;;2.53;;
18265;SDS011;9259;48.194;16.322;2024-02-21T00:26:08;14.53;;;2.70;;
18265;SDS011;9259;48.194;16.322;2024-02-21T00:28:38;13.40;;;2.80;;
18265;SDS011;9259;48.194;16.322;2024-02-21T00:31:06;11.03;;;2.37;;
18265;SDS011;9259;48.194;16.322;2024-02-21T00:33:34;7.80;;;2.50;;
18265;SDS011;9259;48.194;16.322;2024-02-21T00:36:02;8.63;;;2.27;;
18265;SDS011;9259;48.194;16.322;2024-02-21T00:38:30;11.67;;;2.53;;
18265;SDS011;9259;48.194;16.322;2024-02-21T00:40:58;9.50;;;2.47;;
18265;SDS011;9259;48.194;16.322;2024-02-21T00:43:26;10.63;;;2.27;;
18265;SDS011;9259;48.194;16.322;2024-02-21T00:45:56;12.00;;;2.17;;
18265;SDS011;9259;48.194;16.322;2024-02-21T00:48:24;7.67;;;2.47;;
18265;SDS011;9259;48.194;16.322;2024-02-21T00:50:52;8.37;;;2.67;;
18265;SDS011;9259;48.194;16.322;2024-02-21T00:53:20;13.67;;;2.60;;
18265;SDS011;9259;48.194;16.322;2024-02-21T00:55:48;6.23;;;2.00;;
18265;SDS011;9259;48.194;16.322;2024-02-21T00:58:16;12.37;;;2.63;;
18265;SDS011;9259;48.194;16.322;2024-02-21T01:00:44;11.87;;;2.53;;
18265;SDS011;9259;48.194;16.322;2024-02-21T01:03:13;9.33;;;2.70;;
18265;SDS011;9259;48.194;16.322;2024-02-21T01:05:41;10.03;;;2.37;;
18265;SDS011;9259;48.194;16.322;2024-02-21T01:08:09;10.40;;;2.83;;
18265;SDS011;9259;48.194;16.322;2024-02-21T01:10:37;8.83;;;2.20;;
18265;SDS011;9259;48.194;16.322;2024-02-21T01:13:05;13.33;;;2.87;;
18265;SDS011;9259;48.194;16.322;2024-02-21T01:15:33;13.23;;;2.80;;
18265;SDS011;9259;48.194;16.322;2024-02-21T01:18:01;11.07;;;2.57;;
18265;SDS011;9259;48.194;16.322;2024-02-21T01:20:32;10.30;;;2.70;;
18265;SDS011;9259;48.194;16.322;2024-02-21T01:23:00;7.93;;;2.50;;
18265;SDS011;9259;48.194;16.322;2024-02-21T01:25:28;13.27;;;2.60;;
18265;SDS011;9259;48.194;16.322;2024-02-21T01:27:56;11.90;;;2.53;;
18265;SDS011;9259;48.194;16.322;2024-02-21T01:30:24;17.53;;;3.10;;
18265;SDS011;9259;48.194;16.322;2024-02-21T01:32:52;11.63;;;2.50;;
18265;SDS011;9259;48.194;16.322;2024-02-21T01:35:20;13.70;;;2.73;;
18265;SDS011;9259;48.194;16.322;2024-02-21T01:37:49;13.67;;;2.40;;
18265;SDS011;9259;48.194;16.322;2024-02-21T01:40:18;10.60;;;2.43;;
18265;SDS011;9259;48.194;16.322;2024-02-21T01:42:46;8.70;;;2.70;;
18265;SDS011;9259;48.194;16.322;2024-02-21T01:45:14;11.73;;;2.20;;
18265;SDS011;9259;48.194;16.322;2024-02-21T01:47:42;7.50;;;2.47;;
18265;SDS011;9259;48.194;16.322;2024-02-21T01:50:10;13.50;;;2.43;;
18265;SDS011;9259;48.194;16.322;2024-02-21T01:52:39;12.33;;;2.80;;
18265;SDS011;9259;48.194;16.322;2024-02-21T01:55:10;11.53;;;2.50;;
18265;SDS011;9259;48.194;16.322;2024-02-21T01:57:39;10.40;;;2.37;;
18265;SDS011;9259;48.194;16.322;2024-02-21T02:00:07;12.40;;;2.77;;
18265;SDS011;9259;48.194;16.322;2024-02-21T02:02:38;11.87;;;2.80;;
18265;SDS011;9259;48.194;16.322;2024-02-21T02:05:07;17.53;;;3.30;;
18265;SDS011;9259;48.194;16.322;2024-02-21T02:07:35;11.90;;;2.97;;
18265;SDS011;9259;48.194;16.322;2024-02-21T02:10:04;11.90;;;3.23;;
18265;SDS011;9259;48.194;16.322;2024-02-21T02:12:34;9.87;;;2.40;;
18265;SDS011;9259;48.194;16.322;2024-02-21T02:15:02;11.83;;;2.80;;
18265;SDS011;9259;48.194;16.322;2024-02-21T02:17:31;10.07;;;2.37;;
18265;SDS011;9259;48.194;16.322;2024-02-21T02:19:59;12.70;;;2.73;;
18265;SDS011;9259;48.194;16.322;2024-02-21T02:22:28;10.30;;;2.70;;
18265;SDS011;9259;48.194;16.322;2024-02-21T02:24:57;11.03;;;2.70;;
18265;SDS011;9259;48.194;16.322;2024-02-21T02:27:25;12.77;;;2.83;;
18265;SDS011;9259;48.194;16.322;2024-02-21T02:29:53;10.67;;;2.50;;
18265;SDS011;9259;48.194;16.322;2024-02-21T02:32:21;9.03;;;2.63;;
18265;SDS011;9259;48.194;16.322;2024-02-21T02:34:49;12.97;;;2.57;;
18265;SDS011;9259;48.194;16.322;2024-02-21T02:37:17;12.20;;;3.00;;
18265;SDS011;9259;48.194;16.322;2024-02-21T02:39:45;11.53;;;2.90;;
18265;SDS011;9259;48.194;16.322;2024-02-21T02:42:16;9.57;;;2.57;;
18265;SDS011;9259;48.194;16.322;2024-02-21T02:44:44;10.97;;;2.60;;
18265;SDS011;9259;48.194;16.322;2024-02-21T02:47:12;10.73;;;2.57;;
18265;SDS011;9259;48.194;16.322;2024-02-21T02:49:40;9.80;;;2.50;;
18265;SDS011;9259;48.194;16.322;2024-02-21T02:52:09;7.90;;;2.30;;
18265;SDS011;9259;48.194;16.322;2024-02-21T02:54:37;9.67;;;2.17;;
18265;SDS011;9259;48.194;16.322;2024-02-21T02:57:05;11.00;;;2.63;;
18265;SDS011;9259;48.194;16.322;2024-02-21T02:59:35;12.30;;;2.40;;
18265;SDS011;9259;48.194;16.322;2024-02-21T03:02:03;8.87;;;2.47;;
18265;SDS011;9259;48.194;16.322;2024-02-21T03:04:31;12.13;;;2.87;;
18265;SDS011;9259;48.194;16.322;2024-02-21T03:06:59;5.63;;;1.87;;
18265;SDS011;9259;48.194;16.322;2024-02-21T03:09:27;6.67;;;2.20;;
18265;SDS011;9259;48.194;16.322;2024-02-21T03:11:55;12.00;;;2.57;;
18265;SDS011;9259;48.194;16.322;2024-02-21T03:14:28;14.27;;;2.63;;
18265;SDS011;9259;48.194;16.322;2024-02-21T03:16:57;7.73;;;2.17;;
18265;SDS011;9259;48.194;16.322;2024-02-21T03:19:25;12.47;;;2.77;;
18265;SDS011;9259;48.194;16.322;2024-02-21T03:21:53;12.80;;;2.20;;
18265;SDS011;9259;48.194;16.322;2024-02-21T03:24:21;12.30;;;2.57;;
18265;SDS011;9259;48.194;16.322;2024-02-21T03:26:50;10.90;;;2.80;;
18265;SDS011;9259;48.194;16.322;2024-02-21T03:29:18;7.67;;;2.60;;
18265;SDS011;9259;48.194;16.322;2024-02-21T03:31:46;10.47;;;2.77;;
18265;SDS011;9259;48.194;16.322;2024-02-21T03:34:15;15.97;;;3.20;;
18265;SDS011;9259;48.194;16.322;2024-02-21T03:36:43;5.87;;;2.60;;
18265;SDS011;9259;48.194;16.322;2024-02-21T03:39:11;12.97;;;2.77;;
18265;SDS011;9259;48.194;16.322;2024-02-21T03:41:39;16.00;;;2.53;;
18265;SDS011;9259;48.194;16.322;2024-02-21T03:44:07;12.70;;;2.57;;
18265;SDS011;9259;48.194;16.322;2024-02-21T03:46:35;8.23;;;2.30;;
18265;SDS011;9259;48.194;16.322;2024-02-21T03:49:03;9.03;;;2.33;;
18265;SDS011;9259;48.194;16.322;2024-02-21T03:51:33;12.63;;;2.03;;
18265;SDS011;9259;48.194;16.322;2024-02-21T03:54:01;12.03;;;2.47;;
18265;SDS011;9259;48.194;16.322;2024-02-21T03:56:29;9.83;;;2.43;;
18265;SDS011;9259;48.194;16.322;2024-02-21T03:58:57;7.50;;;2.23;;
18265;SDS011;9259;48.194;16.322;2024-02-21T04:01:25;13.83;;;2.93;;
18265;SDS011;9259;48.194;16.322;2024-02-21T04:03:53;11.10;;;2.57;;
18265;SDS011;9259;48.194;16.322;2024-02-21T04:06:21;7.73;;;2.10;;
18265;SDS011;9259;48.194;16.322;2024-02-21T04:08:51;10.83;;;2.60;;
18265;SDS011;9259;48.194;16.322;2024-02-21T04:11:19;13.73;;;2.70;;
18265;SDS011;9259;48.194;16.322;2024-02-21T04:13:47;8.93;;;2.50;;
18265;SDS011;9259;48.194;16.322;2024-02-21T04:16:16;12.30;;;2.60;;
18265;SDS011;9259;48.194;16.322;2024-02-21T04:18:44;7.57;;;2.50;;
18265;SDS011;9259;48.194;16.322;2024-02-21T04:21:14;7.17;;;2.37;;
18265;SDS011;9259;48.194;16.322;2024-02-21T04:23:42;10.57;;;2.80;;
18265;SDS011;9259;48.194;16.322;2024-02-21T04:26:11;9.73;;;3.00;;
18265;SDS011;9259;48.194;16.322;2024-02-21T04:28:39;6.90;;;2.47;;
18265;SDS011;9259;48.194;16.322;2024-02-21T04:31:26;6.90;;;2.20;;
18265;SDS011;9259;48.194;16.322;2024-02-21T04:33:54;10.60;;;2.63;;
18265;SDS011;9259;48.194;16.322;2024-02-21T04:36:22;12.60;;;2.90;;
18265;SDS011;9259;48.194;16.322;2024-02-21T04:38:50;11.93;;;2.67;;
18265;SDS011;9259;48.194;16.322;2024-02-21T04:41:19;10.47;;;2.50;;
18265;SDS011;9259;48.194;16.322;2024-02-21T04:43:47;7.97;;;2.50;;
18265;SDS011;9259;48.194;16.322;2024-02-21T04:46:15;9.77;;;2.33;;
18265;SDS011;9259;48.194;16.322;2024-02-21T04:48:43;9.93;;;3.10;;
18265;SDS011;9259;48.194;16.322;2024-02-21T04:51:11;9.90;;;2.33;;
18265;SDS011;9259;48.194;16.322;2024-02-21T04:53:39;7.53;;;2.37;;
18265;SDS011;9259;48.194;16.322;2024-02-21T04:56:07;9.20;;;2.50;;
18265;SDS011;9259;48.194;16.322;2024-02-21T04:58:38;9.50;;;2.27;;
18265;SDS011;9259;48.194;16.322;2024-02-21T05:01:06;5.67;;;1.93;;
18265;SDS011;9259;48.194;16.322;2024-02-21T05:03:34;12.03;;;2.90;;
18265;SDS011;9259;48.194;16.322;2024-02-21T05:06:02;8.50;;;2.20;;
18265;SDS011;9259;48.194;16.322;2024-02-21T05:08:31;7.40;;;2.00;;
18265;SDS011;9259;48.194;16.322;2024-02-21T05:10:59;11.30;;;2.10;;
18265;SDS011;9259;48.194;16.322;2024-02-21T05:13:26;7.13;;;2.40;;
18265;SDS011;9259;48.194;16.322;2024-02-21T05:15:55;8.33;;;2.17;;
18265;SDS011;9259;48.194;16.322;2024-02-21T05:18:27;8.23;;;1.80;;
18265;SDS011;9259;48.194;16.322;2024-02-21T05:20:55;5.87;;;1.87;;
18265;SDS011;9259;48.194;16.322;2024-02-21T05:23:22;6.33;;;2.10;;
18265;SDS011;9259;48.194;16.322;2024-02-21T05:25:50;7.93;;;2.20;;
18265;SDS011;9259;48.194;16.322;2024-02-21T05:28:18;7.80;;;2.03;;
18265;SDS011;9259;48.194;16.322;2024-02-21T05:30:46;11.40;;;2.47;;
18265;SDS011;9259;48.194;16.322;2024-02-21T05:33:15;10.07;;;2.60;;
18265;SDS011;9259;48.194;16.322;2024-02-21T05:35:47;8.40;;;2.03;;
18265;SDS011;9259;48.194;16.322;2024-02-21T05:38:15;11.33;;;2.47;;
18265;SDS011;9259;48.194;16.322;2024-02-21T05:40:44;6.33;;;2.20;;
18265;SDS011;9259;48.194;16.322;2024-02-21T05:43:13;11.43;;;2.77;;
18265;SDS011;9259;48.194;16.322;2024-02-21T05:45:40;11.23;;;2.40;;
18265;SDS011;9259;48.194;16.322;2024-02-21T05:48:08;6.40;;;2.00;;
18265;SDS011;9259;48.194;16.322;2024-02-21T05:50:38;13.13;;;2.10;;
18265;SDS011;9259;48.194;16.322;2024-02-21T05:53:05;9.67;;;2.00;;
18265;SDS011;9259;48.194;16.322;2024-02-21T05:55:33;10.30;;;2.10;;
18265;SDS011;9259;48.194;16.322;2024-02-21T05:58:01;10.23;;;2.10;;
18265;SDS011;9259;48.194;16.322;2024-02-21T06:00:29;8.00;;;1.90;;
18265;SDS011;9259;48.194;16.322;2024-02-21T06:02:57;5.80;;;1.90;;
18265;SDS011;9259;48.194;16.322;2024-02-21T06:05:25;8.27;;;1.80;;
18265;SDS011;9259;48.194;16.322;2024-02-21T06:07:55;9.43;;;2.83;;
18265;SDS011;9259;48.194;16.322;2024-02-21T06:10:23;7.50;;;2.10;;
18265;SDS011;9259;48.194;16.322;2024-02-21T06:12:50;12.03;;;2.17;;
18265;SDS011;9259;48.194;16.322;2024-02-21T06:15:18;7.80;;;1.80;;
18265;SDS011;9259;48.194;16.322;2024-02-21T06:17:46;7.67;;;2.10;;
18265;SDS011;9259;48.194;16.322;2024-02-21T06:20:15;11.90;;;2.60;;
18265;SDS011;9259;48.194;16.322;2024-02-21T06:22:43;5.63;;;1.70;;
18265;SDS011;9259;48.194;16.322;2024-02-21T06:25:12;5.53;;;1.90;;
18265;SDS011;9259;48.194;16.322;2024-02-21T06:27:40;6.37;;;1.77;;
18265;SDS011;9259;48.194;16.322;2024-02-21T06:30:08;11.80;;;2.40;;
18265;SDS011;9259;48.194;16.322;2024-02-21T06:32:37;5.67;;;1.90;;
18265;SDS011;9259;48.194;16.322;2024-02-21T06:35:05;7.93;;;1.67;;
18265;SDS011;9259;48.194;16.322;2024-02-21T06:37:33;12.57;;;2.43;;
18265;SDS011;9259;48.194;16.322;2024-02-21T06:40:01;14.00;;;3.63;;
18265;SDS011;9259;48.194;16.322;2024-02-21T06:42:31;9.70;;;1.93;;
18265;SDS011;9259;48.194;16.322;2024-02-21T06:44:58;7.93;;;2.07;;
18265;SDS011;9259;48.194;16.322;2024-02-21T06:47:26;9.97;;;2.83;;
18265;SDS011;9259;48.194;16.322;2024-02-21T06:49:54;10.83;;;2.90;;
18265;SDS011;9259;48.194;16.322;2024-02-21T06:52:22;9.60;;;2.17;;
18265;SDS011;9259;48.194;16.322;2024-02-21T06:54:51;10.13;;;2.03;;
18265;SDS011;9259;48.194;16.322;2024-02-21T06:57:18;4.77;;;1.80;;
18265;SDS011;9259;48.194;16.322;2024-02-21T06:59:48;6.30;;;2.00;;
18265;SDS011;9259;48.194;16.322;2024-02-21T07:02:16;10.50;;;2.50;;
18265;SDS011;9259;48.194;16.322;2024-02-21T07:04:43;8.07;;;2.67;;
18265;SDS011;9259;48.194;16.322;2024-02-21T07:07:11;9.53;;;2.40;;
18265;SDS011;9259;48.194;16.322;2024-02-21T07:09:39;7.93;;;2.40;;
18265;SDS011;9259;48.194;16.322;2024-02-21T07:12:07;10.33;;;2.50;;
18265;SDS011;9259;48.194;16.322;2024-02-21T07:14:35;14.23;;;2.40;;
18265;SDS011;9259;48.194;16.322;2024-02-21T07:17:04;8.17;;;1.60;;
18265;SDS011;9259;48.194;16.322;2024-02-21T07:19:32;9.90;;;2.13;;
18265;SDS011;9259;48.194;16.322;2024-02-21T07:22:01;12.10;;;2.70;;
18265;SDS011;9259;48.194;16.322;2024-02-21T07:24:29;8.50;;;2.43;;
18265;SDS011;9259;48.194;16.322;2024-02-21T07:26:57;14.27;;;3.07;;
18265;SDS011;9259;48.194;16.322;2024-02-21T07:29:30;12.33;;;3.27;;
18265;SDS011;9259;48.194;16.322;2024-02-21T07:31:58;11.57;;;2.70;;
18265;SDS011;9259;48.194;16.322;2024-02-21T07:34:27;11.20;;;2.10;;
18265;SDS011;9259;48.194;16.322;2024-02-21T07:36:55;10.30;;;2.53;;
18265;SDS011;9259;48.194;16.322;2024-02-21T07:39:23;10.50;;;2.60;;
18265;SDS011;9259;48.194;16.322;2024-02-21T07:41:51;9.87;;;3.30;;
18265;SDS011;9259;48.194;16.322;2024-02-21T07:44:18;13.80;;;3.50;;
18265;SDS011;9259;48.194;16.322;2024-02-21T07:46:46;11.50;;;3.37;;
18265;SDS011;9259;48.194;16.322;2024-02-21T07:49:14;10.07;;;2.77;;
18265;SDS011;9259;48.194;16.322;2024-02-21T07:51:43;15.93;;;3.47;;
18265;SDS011;9259;48.194;16.322;2024-02-21T07:54:11;6.43;;;2.60;;
18265;SDS011;9259;48.194;16.322;2024-02-21T07:56:39;10.73;;;3.07;;
18265;SDS011;9259;48.194;16.322;2024-02-21T07:59:06;9.67;;;2.47;;
18265;SDS011;9259;48.194;16.322;2024-02-21T08:01:34;8.90;;;2.00;;
18265;SDS011;9259;48.194;16.322;2024-02-21T08:04:03;8.77;;;1.87;;
18265;SDS011;9259;48.194;16.322;2024-02-21T08:06:31;8.83;;;1.40;;
18265;SDS011;9259;48.194;16.322;2024-02-21T08:09:00;13.30;;;1.70;;
18265;SDS011;9259;48.194;16.322;2024-02-21T08:11:28;9.00;;;1.90;;
18265;SDS011;9259;48.194;16.322;2024-02-21T08:13:56;7.60;;;1.83;;
18265;SDS011;9259;48.194;16.322;2024-02-21T08:16:24;7.93;;;2.10;;
18265;SDS011;9259;48.194;16.322;2024-02-21T08:18:53;7.93;;;1.53;;
18265;SDS011;9259;48.194;16.322;2024-02-21T08:21:21;5.37;;;1.60;;
18265;SDS011;9259;48.194;16.322;2024-02-21T08:23:49;7.60;;;1.60;;
18265;SDS011;9259;48.194;16.322;2024-02-21T08:26:18;9.77;;;1.70;;
18265;SDS011;9259;48.194;16.322;2024-02-21T08:28:46;6.90;;;1.60;;
18265;SDS011;9259;48.194;16.322;2024-02-21T08:31:18;4.53;;;1.43;;
18265;SDS011;9259;48.194;16.322;2024-02-21T08:33:46;6.57;;;1.37;;
18265;SDS011;9259;48.194;16.322;2024-02-21T08:36:17;6.70;;;1.47;;
18265;SDS011;9259;48.194;16.322;2024-02-21T08:38:46;8.50;;;1.67;;
18265;SDS011;9259;48.194;16.322;2024-02-21T08:41:13;4.40;;;1.23;;
18265;SDS011;9259;48.194;16.322;2024-02-21T08:43:44;3.93;;;1.20;;
18265;SDS011;9259;48.194;16.322;2024-02-21T08:46:12;4.93;;;1.30;;
18265;SDS011;9259;48.194;16.322;2024-02-21T08:48:39;5.40;;;1.13;;
18265;SDS011;9259;48.194;16.322;2024-02-21T08:51:07;10.10;;;1.90;;
18265;SDS011;9259;48.194;16.322;2024-02-21T08:53:35;8.40;;;1.70;;
18265;SDS011;9259;48.194;16.322;2024-02-21T08:56:04;8.70;;;1.30;;
18265;SDS011;9259;48.194;16.322;2024-02-21T08:58:33;9.33;;;1.50;;
18265;SDS011;9259;48.194;16.322;2024-02-21T09:01:04;6.07;;;1.70;;
18265;SDS011;9259;48.194;16.322;2024-02-21T09:03:32;5.60;;;1.53;;
18265;SDS011;9259;48.194;16.322;2024-02-21T09:06:00;5.13;;;1.43;;
18265;SDS011;9259;48.194;16.322;2024-02-21T09:08:28;7.80;;;1.37;;
18265;SDS011;9259;48.194;16.322;2024-02-21T09:10:56;6.90;;;1.70;;
18265;SDS011;9259;48.194;16.322;2024-02-21T09:13:24;5.23;;;1.50;;
18265;SDS011;9259;48.194;16.322;2024-02-21T09:15:52;5.00;;;1.60;;
18265;SDS011;9259;48.194;16.322;2024-02-21T09:18:21;8.63;;;1.80;;
18265;SDS011;9259;48.194;16.322;2024-02-21T09:20:49;6.07;;;1.70;;
18265;SDS011;9259;48.194;16.322;2024-02-21T09:23:17;5.83;;;1.53;;
18265;SDS011;9259;48.194;16.322;2024-02-21T09:25:46;7.97;;;1.67;;
18265;SDS011;9259;48.194;16.322;2024-02-21T09:28:14;6.37;;;1.67;;
18265;SDS011;9259;48.194;16.322;2024-02-21T09:30:41;4.10;;;1.40;;
18265;SDS011;9259;48.194;16.322;2024-02-21T09:33:09;4.47;;;1.40;;
18265;SDS011;9259;48.194;16.322;2024-02-21T09:35:38;3.90;;;1.20;;
18265;SDS011;9259;48.194;16.322;2024-02-21T09:38:06;8.87;;;2.13;;
18265;SDS011;9259;48.194;16.322;2024-02-21T09:40:34;6.17;;;1.30;;
18265;SDS011;9259;48.194;16.322;2024-02-21T09:43:04;6.27;;;1.20;;
18265;SDS011;9259;48.194;16.322;2024-02-21T09:45:32;11.43;;;1.63;;
18265;SDS011;9259;48.194;16.322;2024-02-21T09:48:19;5.30;;;1.40;;
18265;SDS011;9259;48.194;16.322;2024-02-21T09:51:01;8.43;;;1.60;;
18265;SDS011;9259;48.194;16.322;2024-02-21T09:53:31;7.43;;;1.60;;
18265;SDS011;9259;48.194;16.322;2024-02-21T09:56:01;8.43;;;1.70;;
18265;SDS011;9259;48.194;16.322;2024-02-21T09:58:29;5.30;;;1.57;;
18265;SDS011;9259;48.194;16.322;2024-02-21T10:00:58;8.95;;;1.67;;
18265;SDS011;9259;48.194;16.322;2024-02-21T10:03:26;6.50;;;1.40;;
18265;SDS011;9259;48.194;16.322;2024-02-21T10:05:54;5.55;;;1.38;;
18265;SDS011;9259;48.194;16.322;2024-02-21T10:08:23;10.20;;;1.90;;
18265;SDS011;9259;48.194;16.322;2024-02-21T10:10:51;6.75;;;1.80;;
18265;SDS011;9259;48.194;16.322;2024-02-21T10:13:23;7.47;;;1.65;;
18265;SDS011;9259;48.194;16.322;2024-02-21T10:16:02;6.82;;;1.40;;
18265;SDS011;9259;48.194;16.322;2024-02-21T10:18:31;5.37;;;1.60;;
18265;SDS011;9259;48.194;16.322;2024-02-21T10:21:00;6.73;;;1.83;;
18265;SDS011;9259;48.194;16.322;2024-02-21T10:23:40;9.40;;;2.03;;
18265;SDS011;9259;48.194;16.322;2024-02-21T10:26:11;6.45;;;1.63;;
18265;SDS011;9259;48.194;16.322;2024-02-21T10:28:39;10.50;;;1.58;;
18265;SDS011;9259;48.194;16.322;2024-02-21T10:31:10;9.80;;;1.83;;
18265;SDS011;9259;48.194;16.322;2024-02-21T10:33:39;8.38;;;1.50;;
18265;SDS011;9259;48.194;16.322;2024-02-21T10:36:07;5.93;;;1.60;;
18265;SDS011;9259;48.194;16.322;2024-02-21T10:38:38;5.43;;;1.63;;
18265;SDS011;9259;48.194;16.322;2024-02-21T10:41:06;10.20;;;2.10;;
18265;SDS011;9259;48.194;16.322;2024-02-21T10:43:37;4.53;;;1.50;;
18265;SDS011;9259;48.194;16.322;2024-02-21T10:46:07;7.17;;;2.10;;
18265;SDS011;9259;48.194;16.322;2024-02-21T10:48:40;6.73;;;2.33;;
18265;SDS011;9259;48.194;16.322;2024-02-21T10:51:14;9.17;;;1.87;;
18265;SDS011;9259;48.194;16.322;2024-02-21T10:53:50;7.93;;;1.77;;
18265;SDS011;9259;48.194;16.322;2024-02-21T10:56:28;9.07;;;1.40;;
18265;SDS011;9259;48.194;16.322;2024-02-21T10:59:01;8.50;;;1.80;;
18265;SDS011;9259;48.194;16.322;2024-02-21T11:01:31;6.97;;;1.53;;
18265;SDS011;9259;48.194;16.322;2024-02-21T11:04:01;9.67;;;2.07;;
18265;SDS011;9259;48.194;16.322;2024-02-21T11:06:31;4.60;;;1.43;;
18265;SDS011;9259;48.194;16.322;2024-02-21T11:09:03;7.13;;;1.57;;
18265;SDS011;9259;48.194;16.322;2024-02-21T11:11:33;7.17;;;1.37;;
18265;SDS011;9259;48.194;16.322;2024-02-21T11:14:05;7.23;;;1.90;;
18265;SDS011;9259;48.194;16.322;2024-02-21T11:16:37;6.97;;;1.40;;
18265;SDS011;9259;48.194;16.322;2024-02-21T11:19:07;10.07;;;2.10;;
18265;SDS011;9259;48.194;16.322;2024-02-21T11:21:37;5.13;;;1.40;;
18265;SDS011;9259;48.194;16.322;2024-02-21T11:24:06;8.33;;;1.47;;
18265;SDS011;9259;48.194;16.322;2024-02-21T11:26:36;8.57;;;1.77;;
18265;SDS011;9259;48.194;16.322;2024-02-21T11:29:07;8.10;;;1.90;;
18265;SDS011;9259;48.194;16.322;2024-02-21T11:31:39;8.50;;;2.07;;
18265;SDS011;9259;48.194;16.322;2024-02-21T11:34:08;5.43;;;1.50;;
18265;SDS011;9259;48.194;16.322;2024-02-21T11:36:46;12.17;;;2.20;;
18265;SDS011;9259;48.194;16.322;2024-02-21T11:39:19;9.10;;;2.10;;
18265;SDS011;9259;48.194;16.322;2024-02-21T11:42:00;8.13;;;1.80;;
18265;SDS011;9259;48.194;16.322;2024-02-21T11:44:30;7.10;;;1.30;;
18265;SDS011;9259;48.194;16.322;2024-02-21T11:46:58;6.13;;;1.70;;
18265;SDS011;9259;48.194;16.322;2024-02-21T11:49:27;4.87;;;1.60;;
18265;SDS011;9259;48.194;16.322;2024-02-21T11:51:59;7.60;;;1.80;;
18265;SDS011;9259;48.194;16.322;2024-02-21T11:54:31;7.10;;;1.43;;
18265;SDS011;9259;48.194;16.322;2024-02-21T11:56:59;4.70;;;0.93;;
18265;SDS011;9259;48.194;16.322;2024-02-21T11:59:29;8.27;;;1.47;;
18265;SDS011;9259;48.194;16.322;2024-02-21T12:01:58;9.57;;;1.33;;
18265;SDS011;9259;48.194;16.322;2024-02-21T12:04:26;7.77;;;1.60;;
18265;SDS011;9259;48.194;16.322;2024-02-21T12:06:54;9.97;;;1.93;;
18265;SDS011;9259;48.194;16.322;2024-02-21T12:09:23;6.87;;;1.80;;
18265;SDS011;9259;48.194;16.322;2024-02-21T12:11:59;10.40;;;1.33;;
18265;SDS011;9259;48.194;16.322;2024-02-21T12:14:31;4.83;;;1.30;;
18265;SDS011;9259;48.194;16.322;2024-02-21T12:17:00;5.43;;;1.17;;
18265;SDS011;9259;48.194;16.322;2024-02-21T12:19:30;4.93;;;1.17;;
18265;SDS011;9259;48.194;16.322;2024-02-21T12:21:59;5.57;;;1.30;;
18265;SDS011;9259;48.194;16.322;2024-02-21T12:24:28;7.50;;;1.70;;
18265;SDS011;9259;48.194;16.322;2024-02-21T12:26:56;4.07;;;1.20;;
18265;SDS011;9259;48.194;16.322;2024-02-21T12:29:27;10.33;;;1.80;;
18265;SDS011;9259;48.194;16.322;2024-02-21T12:31:55;6.93;;;1.30;;
18265;SDS011;9259;48.194;16.322;2024-02-21T12:34:23;7.47;;;1.20;;
18265;SDS011;9259;48.194;16.322;2024-02-21T12:36:52;4.97;;;1.37;;
18265;SDS011;9259;48.194;16.322;2024-02-21T12:39:20;7.50;;;1.63;;
18265;SDS011;9259;48.194;16.322;2024-02-21T12:41:48;5.90;;;1.33;;
18265;SDS011;9259;48.194;16.322;2024-02-21T12:44:16;8.97;;;1.53;;
18265;SDS011;9259;48.194;16.322;2024-02-21T12:46:45;10.20;;;1.70;;
18265;SDS011;9259;48.194;16.322;2024-02-21T12:49:17;5.50;;;1.40;;
18265;SDS011;9259;48.194;16.322;2024-02-21T12:51:45;7.17;;;1.50;;
18265;SDS011;9259;48.194;16.322;2024-02-21T12:54:13;6.87;;;1.20;;
18265;SDS011;9259;48.194;16.322;2024-02-21T12:56:41;6.60;;;1.47;;
18265;SDS011;9259;48.194;16.322;2024-02-21T12:59:09;9.27;;;1.60;;
18265;SDS011;9259;48.194;16.322;2024-02-21T13:01:37;7.77;;;2.13;;
18265;SDS011;9259;48.194;16.322;2024-02-21T13:04:06;10.33;;;1.60;;
18265;SDS011;9259;48.194;16.322;2024-02-21T13:06:34;10.03;;;1.60;;
18265;SDS011;9259;48.194;16.322;2024-02-21T13:09:02;6.53;;;1.67;;
18265;SDS011;9259;48.194;16.322;2024-02-21T13:11:33;6.63;;;1.47;;
18265;SDS011;9259;48.194;16.322;2024-02-21T13:14:01;8.97;;;1.63;;
18265;SDS011;9259;48.194;16.322;2024-02-21T13:16:29;7.60;;;1.87;;
18265;SDS011;9259;48.194;16.322;2024-02-21T13:18:57;4.33;;;1.43;;
18265;SDS011;9259;48.194;16.322;2024-02-21T13:21:26;6.43;;;1.73;;
18265;SDS011;9259;48.194;16.322;2024-02-21T13:23:54;6.20;;;1.20;;
18265;SDS011;9259;48.194;16.322;2024-02-21T13:26:22;5.13;;;1.70;;
18265;SDS011;9259;48.194;16.322;2024-02-21T13:28:50;6.93;;;1.60;;
18265;SDS011;9259;48.194;16.322;2024-02-21T13:31:18;5.85;;;1.55;;
18265;SDS011;9259;48.194;16.322;2024-02-21T13:33:46;4.93;;;1.60;;
18265;SDS011;9259;48.194;16.322;2024-02-21T13:36:13;10.30;;;1.65;;
18265;SDS011;9259;48.194;16.322;2024-02-21T13:38:43;5.75;;;1.67;;
18265;SDS011;9259;48.194;16.322;2024-02-21T13:41:10;5.82;;;1.88;;
18265;SDS011;9259;48.194;16.322;2024-02-21T13:43:38;12.02;;;2.58;;
18265;SDS011;9259;48.194;16.322;2024-02-21T13:46:06;8.60;;;2.03;;
18265;SDS011;9259;48.194;16.322;2024-02-21T13:48:35;8.53;;;2.53;;
18265;SDS011;9259;48.194;16.322;2024-02-21T13:51:03;10.60;;;1.93;;
18265;SDS011;9259;48.194;16.322;2024-02-21T13:53:32;16.47;;;4.87;;
18265;SDS011;9259;48.194;16.322;2024-02-21T13:56:01;8.47;;;2.03;;
18265;SDS011;9259;48.194;16.322;2024-02-21T13:58:30;5.77;;;1.97;;
18265;SDS011;9259;48.194;16.322;2024-02-21T14:00:57;5.43;;;2.08;;
18265;SDS011;9259;48.194;16.322;2024-02-21T14:03:26;6.78;;;1.40;;
18265;SDS011;9259;48.194;16.322;2024-02-21T14:05:54;8.57;;;1.63;;
18265;SDS011;9259;48.194;16.322;2024-02-21T14:08:22;7.25;;;1.75;;
18265;SDS011;9259;48.194;16.322;2024-02-21T14:10:50;7.18;;;1.55;;
18265;SDS011;9259;48.194;16.322;2024-02-21T14:13:19;6.18;;;1.17;;
18265;SDS011;9259;48.194;16.322;2024-02-21T14:15:47;6.85;;;1.40;;
18265;SDS011;9259;48.194;16.322;2024-02-21T14:18:15;6.68;;;1.63;;
18265;SDS011;9259;48.194;16.322;2024-02-21T14:20:43;5.63;;;1.20;;
18265;SDS011;9259;48.194;16.322;2024-02-21T14:23:12;7.10;;;1.40;;
18265;SDS011;9259;48.194;16.322;2024-02-21T14:25:40;5.70;;;1.33;;
18265;SDS011;9259;48.194;16.322;2024-02-21T14:28:08;7.93;;;1.30;;
18265;SDS011;9259;48.194;16.322;2024-02-21T14:30:37;5.28;;;1.10;;
18265;SDS011;9259;48.194;16.322;2024-02-21T14:33:05;8.35;;;1.10;;
18265;SDS011;9259;48.194;16.322;2024-02-21T14:35:33;2.72;;;1.08;;
18265;SDS011;9259;48.194;16.322;2024-02-21T14:38:01;4.97;;;1.10;;
18265;SDS011;9259;48.194;16.322;2024-02-21T14:40:29;5.38;;;1.13;;
18265;SDS011;9259;48.194;16.322;2024-02-21T14:42:57;6.93;;;1.02;;
18265;SDS011;9259;48.194;16.322;2024-02-21T14:45:26;3.40;;;1.00;;
18265;SDS011;9259;48.194;16.322;2024-02-21T14:47:55;5.63;;;1.50;;
18265;SDS011;9259;48.194;16.322;2024-02-21T14:50:23;5.38;;;0.75;;
18265;SDS011;9259;48.194;16.322;2024-02-21T14:52:51;7.30;;;1.30;;